MAE weather

Mendoza Airpark
Mendoza, Mendoza Province, Argentina

Public forecast

Using degrees Celsius for public forecast. Weather courtesy of forecast.io.

METAR (pilot weather report)

Closest report is El Plumerillo Airport, 4.5 nm (8.3 km) ENE. Retrieved 2019/07/16 08:00 UTC (8 minutes ago):

SAME 160800Z 23002KT CAVOK 05/01 Q1019

TAF (pilot weather forecast)

Closest forecast is El Plumerillo Airport, 4.5 nm (8.3 km) ENE. Retrieved 2019/07/16 06:00 UTC (2 hours ago):

TAF SAME 160500Z 1606/1706 VRB03KT CAVOK TX17/1619Z TN00/1611Z BECMG 1700/1702 18005KT